Cheonan KR Speed Test Log

Minimum

Min 14.7 Mbps : 2.81 Mbps

Median

Median 206.5 Mbps : 8.33 Mbps

Maximum

Max 502.2 Mbps : 202.97 Mbps

Minimum

Minimum: 14.7 Mbps : 2.81 Mbps

Median

Median: 206.5 Mbps : 8.33 Mbps

Maximum

Maximum: 502.2 Mbps : 202.97 Mbps
Averages    
1 to 25 of 558** for City Cheonan KR
Time
Speed Provider Size    User ConnectID  TestID
2/26/24 6:31:08 am 502.2 Mbps 62.78 MB/sKorea 200 MB11110730541209 e97NCBJZ7 
2/24/24 7:11:31 am 8.24 Mbps 1.03 MB/sSk Broadband 6.4 MB1110793774839 5dl4LqldL 
2/24/24 7:09:54 am 8.29 Mbps 1.04 MB/sSk Broadband 6.4 MB1110793774839 HGPGVH-hR 
2/24/24 7:09:45 am 8.33 Mbps 1.04 MB/sSk Broadband 6.4 MB1110793774839 tZjFp0x9s 
2/24/24 7:09:37 am 8.23 Mbps 1.03 MB/sSk Broadband 6.4 MB1110793774839 EJzlWr6Td 
2/24/24 7:09:19 am 8.55 Mbps 1.07 MB/sSk Broadband 6.4 MB1110793774839 lIxGERR39 
2/24/24 7:08:03 am 2.81 Mbps 0.35 MB/sSk Broadband 2.3 MB1110793774839 m0YgsE0Z2 
2/24/24 7:07:16 am 3 Mbps 0.38 MB/sSk Broadband 2.3 MB1110793774839 MSlFyAj4W 
2/18/24 1:17:00 am 209.66 Mbps 26.21 MB/sKorea 201 MB16791711405490 M48IjQXNW 
2/18/24 1:16:39 am 193.11 Mbps 24.14 MB/sKorea 100 MB16791711405490 sZmQ3C5Rq 
2/18/24 1:16:29 am 14.87 Mbps 1.86 MB/sKorea 4.7 MB16791711405490 OUMUMCG44 
2/18/24 1:16:09 am 23.5 Mbps 2.94 MB/sKorea 19.3 MB16791711405490 bI5_Ans3y 
2/18/24 1:15:57 am 133.42 Mbps 16.68 MB/sKorea 59.6 MB16791711405490 aOvJmr1n6 
2/18/24 1:14:51 am 14.7 Mbps 1.84 MB/sKorea 5 MB16791711405490 dqMjPiaiA 
1/12/24 11:48:20 am 72.33 Mbps 9.04 MB/sSk Broadband 73.5 MB19277176998722 P6qjWXNcW 
12/21/23 2:48:42 pm 257.64 Mbps 32.21 MB/sKorea 89 MB1111310897237 zvTWKgwsk 
12/21/23 2:48:30 pm 202.97 Mbps 25.37 MB/sKorea 100 MB1111310897237 KZO2iwi-E 
12/21/23 2:47:58 pm 88.68 Mbps 11.08 MB/sKorea 63.9 MB1111310897237 LW7xkTW9x 
12/18/23 6:44:11 pm 393.17 Mbps 49.15 MB/sLg Dacom 138 MB539152623050 -GmgKP0s1 
12/11/23 1:19:16 am 316.67 Mbps 39.58 MB/sLg Powercomm 200 MB450878626032 M6hXdXflT 
12/10/23 3:20:42 am 203.34 Mbps 25.42 MB/sKorea 132 MB16066976289136 QR9Ga1HdX 
12/7/23 6:42:21 am 325.25 Mbps 40.66 MB/sLg Powercomm 68.1 MB450874987664 TZbqZA0JQ 
11/4/23 2:40:52 am 28.56 Mbps 3.57 MB/sKorea 13.7 MB2028134102055 xqzCsoo_M 
11/1/23 2:03:13 am 168.08 Mbps 21.01 MB/sKorea 100 MB16791711405490 ufMc8eEpO 
11/1/23 2:02:56 am 235.18 Mbps 29.4 MB/sKorea 201 MB16791711405490 7Rk5IGvPU 
  
** Partial Results: The most recent results have been displayed. Results over 50 Mbps are highlighted.
Graphed results calculation
Displaying Internet Speed Test results for City Cheonan KR